sensor_id;sensor_type;location;lat;lon;timestamp;pressure;altitude;pressure_sealevel;temperature;humidity
14838;BME280;7510;59.296;18.106;2022-09-02T00:00:50;101929.88;;;24.25;36.21
14838;BME280;7510;59.296;18.106;2022-09-02T00:03:16;101930.94;;;23.82;37.10
14838;BME280;7510;59.296;18.106;2022-09-02T00:05:42;101919.41;;;23.75;37.05
14838;BME280;7510;59.296;18.106;2022-09-02T00:08:08;101931.59;;;24.45;35.96
14838;BME280;7510;59.296;18.106;2022-09-02T00:10:39;101916.94;;;24.21;36.26
14838;BME280;7510;59.296;18.106;2022-09-02T00:13:06;101932.28;;;24.73;35.46
14838;BME280;7510;59.296;18.106;2022-09-02T00:15:32;101930.56;;;24.36;36.18
14838;BME280;7510;59.296;18.106;2022-09-02T00:17:59;101932.44;;;24.40;36.02
14838;BME280;7510;59.296;18.106;2022-09-02T00:20:25;101922.06;;;24.32;36.28
14838;BME280;7510;59.296;18.106;2022-09-02T00:22:51;101925.75;;;24.46;35.84
14838;BME280;7510;59.296;18.106;2022-09-02T00:25:16;101927.94;;;24.02;36.56
14838;BME280;7510;59.296;18.106;2022-09-02T00:27:42;101934.41;;;24.16;36.23
14838;BME280;7510;59.296;18.106;2022-09-02T00:30:07;101930.47;;;23.70;36.95
14838;BME280;7510;59.296;18.106;2022-09-02T00:32:33;101932.94;;;23.77;36.57
14838;BME280;7510;59.296;18.106;2022-09-02T00:34:58;101936.97;;;23.84;36.38
14838;BME280;7510;59.296;18.106;2022-09-02T00:37:25;101903.25;;;23.31;37.09
14838;BME280;7510;59.296;18.106;2022-09-02T00:39:52;101932.25;;;23.57;36.80
14838;BME280;7510;59.296;18.106;2022-09-02T00:42:20;101934.97;;;23.28;37.37
14838;BME280;7510;59.296;18.106;2022-09-02T00:44:45;101928.47;;;23.48;36.76
14838;BME280;7510;59.296;18.106;2022-09-02T00:47:11;101927.16;;;23.07;37.06
14838;BME280;7510;59.296;18.106;2022-09-02T00:49:39;101930.97;;;23.16;37.44
14838;BME280;7510;59.296;18.106;2022-09-02T00:52:12;101912.66;;;23.25;36.63
14838;BME280;7510;59.296;18.106;2022-09-02T00:54:49;101928.50;;;23.43;36.31
14838;BME280;7510;59.296;18.106;2022-09-02T00:57:18;101907.16;;;23.25;36.69
14838;BME280;7510;59.296;18.106;2022-09-02T01:02:30;101923.22;;;23.74;35.86
14838;BME280;7510;59.296;18.106;2022-09-02T01:04:58;101931.22;;;23.81;35.72
14838;BME280;7510;59.296;18.106;2022-09-02T01:07:25;101926.22;;;23.83;35.64
14838;BME280;7510;59.296;18.106;2022-09-02T01:09:53;101904.00;;;23.03;36.43
14838;BME280;7510;59.296;18.106;2022-09-02T01:12:20;101924.13;;;23.08;36.67
14838;BME280;7510;59.296;18.106;2022-09-02T01:14:46;101925.84;;;23.33;36.31
14838;BME280;7510;59.296;18.106;2022-09-02T01:17:11;101926.13;;;22.93;36.75
14838;BME280;7510;59.296;18.106;2022-09-02T01:19:42;101917.91;;;22.88;36.68
14838;BME280;7510;59.296;18.106;2022-09-02T01:24:41;101931.28;;;23.09;36.51
14838;BME280;7510;59.296;18.106;2022-09-02T01:27:06;101920.41;;;23.23;36.28
14838;BME280;7510;59.296;18.106;2022-09-02T01:29:31;101943.63;;;23.50;35.69
14838;BME280;7510;59.296;18.106;2022-09-02T01:31:57;101918.69;;;22.45;37.43
14838;BME280;7510;59.296;18.106;2022-09-02T01:34:23;101919.56;;;22.89;36.79
14838;BME280;7510;59.296;18.106;2022-09-02T01:36:49;101919.91;;;23.16;36.18
14838;BME280;7510;59.296;18.106;2022-09-02T01:39:15;101933.78;;;23.11;36.38
14838;BME280;7510;59.296;18.106;2022-09-02T01:41:41;101940.25;;;23.25;36.01
14838;BME280;7510;59.296;18.106;2022-09-02T01:44:09;101952.47;;;23.19;36.38
14838;BME280;7510;59.296;18.106;2022-09-02T01:46:40;101945.41;;;22.98;36.59
14838;BME280;7510;59.296;18.106;2022-09-02T01:49:06;101949.97;;;22.74;37.10
14838;BME280;7510;59.296;18.106;2022-09-02T01:51:31;101956.56;;;22.78;37.21
14838;BME280;7510;59.296;18.106;2022-09-02T01:53:57;101948.53;;;22.81;37.07
14838;BME280;7510;59.296;18.106;2022-09-02T01:56:22;101922.38;;;22.74;37.03
14838;BME280;7510;59.296;18.106;2022-09-02T01:58:47;101947.47;;;23.21;36.52
14838;BME280;7510;59.296;18.106;2022-09-02T02:01:13;101946.88;;;23.29;36.42
14838;BME280;7510;59.296;18.106;2022-09-02T02:03:39;101945.25;;;23.23;36.37
14838;BME280;7510;59.296;18.106;2022-09-02T02:06:10;101944.44;;;23.22;36.29
14838;BME280;7510;59.296;18.106;2022-09-02T02:08:37;101953.25;;;23.19;36.33
14838;BME280;7510;59.296;18.106;2022-09-02T02:11:03;101953.13;;;23.01;36.74
14838;BME280;7510;59.296;18.106;2022-09-02T02:13:29;101942.84;;;22.63;37.22
14838;BME280;7510;59.296;18.106;2022-09-02T02:15:55;101945.91;;;23.10;36.49
14838;BME280;7510;59.296;18.106;2022-09-02T02:18:20;101925.38;;;22.29;37.57
14838;BME280;7510;59.296;18.106;2022-09-02T02:20:46;101949.56;;;22.47;37.42
14838;BME280;7510;59.296;18.106;2022-09-02T02:23:11;101949.66;;;23.24;36.49
14838;BME280;7510;59.296;18.106;2022-09-02T02:25:37;101955.88;;;23.01;36.78
14838;BME280;7510;59.296;18.106;2022-09-02T02:28:03;101957.03;;;22.90;37.03
14838;BME280;7510;59.296;18.106;2022-09-02T02:30:28;101956.66;;;23.45;36.26
14838;BME280;7510;59.296;18.106;2022-09-02T02:32:54;101965.25;;;23.00;36.82
14838;BME280;7510;59.296;18.106;2022-09-02T02:35:19;101944.09;;;22.27;37.39
14838;BME280;7510;59.296;18.106;2022-09-02T02:37:45;101963.19;;;22.72;37.17
14838;BME280;7510;59.296;18.106;2022-09-02T02:40:18;101953.88;;;22.63;37.01
14838;BME280;7510;59.296;18.106;2022-09-02T02:42:44;101968.16;;;22.75;36.82
14838;BME280;7510;59.296;18.106;2022-09-02T02:45:10;101961.31;;;23.16;35.98
14838;BME280;7510;59.296;18.106;2022-09-02T02:47:38;101945.41;;;22.98;36.22
14838;BME280;7510;59.296;18.106;2022-09-02T02:50:09;101955.69;;;22.24;37.00
14838;BME280;7510;59.296;18.106;2022-09-02T02:52:35;101945.75;;;22.28;37.14
14838;BME280;7510;59.296;18.106;2022-09-02T02:55:01;101962.63;;;22.02;37.60
14838;BME280;7510;59.296;18.106;2022-09-02T02:57:26;101965.41;;;22.75;36.48
14838;BME280;7510;59.296;18.106;2022-09-02T02:59:52;101972.31;;;22.68;36.42
14838;BME280;7510;59.296;18.106;2022-09-02T03:02:17;101976.06;;;22.28;37.05
14838;BME280;7510;59.296;18.106;2022-09-02T03:04:42;101941.78;;;21.71;37.80
14838;BME280;7510;59.296;18.106;2022-09-02T03:07:08;101971.16;;;22.05;37.37
14838;BME280;7510;59.296;18.106;2022-09-02T03:09:34;101972.16;;;22.44;36.67
14838;BME280;7510;59.296;18.106;2022-09-02T03:12:00;101983.28;;;22.09;37.40
14838;BME280;7510;59.296;18.106;2022-09-02T03:14:25;101983.78;;;22.31;37.08
14838;BME280;7510;59.296;18.106;2022-09-02T03:16:51;101970.53;;;22.33;36.93
14838;BME280;7510;59.296;18.106;2022-09-02T03:19:17;101978.81;;;22.91;35.93
14838;BME280;7510;59.296;18.106;2022-09-02T03:21:42;101978.16;;;22.56;36.73
14838;BME280;7510;59.296;18.106;2022-09-02T03:24:09;101979.31;;;22.50;36.97
14838;BME280;7510;59.296;18.106;2022-09-02T03:26:36;101982.66;;;22.37;37.14
14838;BME280;7510;59.296;18.106;2022-09-02T03:29:02;101983.28;;;22.09;37.70
14838;BME280;7510;59.296;18.106;2022-09-02T03:31:28;101980.03;;;22.66;36.68
14838;BME280;7510;59.296;18.106;2022-09-02T03:33:54;101984.56;;;22.42;37.36
14838;BME280;7510;59.296;18.106;2022-09-02T03:38:47;101972.25;;;21.99;37.89
14838;BME280;7510;59.296;18.106;2022-09-02T03:41:12;101984.94;;;22.05;37.80
14838;BME280;7510;59.296;18.106;2022-09-02T03:43:37;101981.88;;;22.07;37.94
14838;BME280;7510;59.296;18.106;2022-09-02T03:46:03;101986.03;;;21.99;38.00
14838;BME280;7510;59.296;18.106;2022-09-02T03:48:29;101977.06;;;22.57;36.94
14838;BME280;7510;59.296;18.106;2022-09-02T03:50:54;101966.31;;;22.56;36.77
14838;BME280;7510;59.296;18.106;2022-09-02T03:53:20;101985.28;;;22.67;37.03
14838;BME280;7510;59.296;18.106;2022-09-02T03:55:46;101991.16;;;22.51;37.08
14838;BME280;7510;59.296;18.106;2022-09-02T03:58:11;101954.97;;;22.67;36.39
14838;BME280;7510;59.296;18.106;2022-09-02T04:00:37;101985.19;;;22.87;36.67
14838;BME280;7510;59.296;18.106;2022-09-02T04:03:03;101960.97;;;22.74;36.57
14838;BME280;7510;59.296;18.106;2022-09-02T04:05:30;101983.94;;;22.65;37.10
14838;BME280;7510;59.296;18.106;2022-09-02T04:07:55;101986.28;;;22.08;38.34
14838;BME280;7510;59.296;18.106;2022-09-02T04:10:21;101982.41;;;22.19;37.79
14838;BME280;7510;59.296;18.106;2022-09-02T04:12:48;101988.19;;;22.37;37.81
14838;BME280;7510;59.296;18.106;2022-09-02T04:15:14;101989.19;;;22.56;37.22
14838;BME280;7510;59.296;18.106;2022-09-02T04:17:40;101994.28;;;22.04;37.86
14838;BME280;7510;59.296;18.106;2022-09-02T04:20:09;101992.91;;;22.07;37.98
14838;BME280;7510;59.296;18.106;2022-09-02T04:22:35;101998.53;;;22.65;37.04
14838;BME280;7510;59.296;18.106;2022-09-02T04:25:01;101999.19;;;22.32;37.42
14838;BME280;7510;59.296;18.106;2022-09-02T04:27:26;101993.81;;;22.75;36.83
14838;BME280;7510;59.296;18.106;2022-09-02T04:29:51;101975.47;;;22.46;37.19
14838;BME280;7510;59.296;18.106;2022-09-02T04:32:17;101987.41;;;22.85;36.83
14838;BME280;7510;59.296;18.106;2022-09-02T04:34:42;101996.44;;;22.32;37.81
14838;BME280;7510;59.296;18.106;2022-09-02T04:37:08;101931.72;;;22.15;37.28
14838;BME280;7510;59.296;18.106;2022-09-02T04:39:33;101968.13;;;22.12;37.66
14838;BME280;7510;59.296;18.106;2022-09-02T04:41:59;101994.56;;;22.08;37.97
14838;BME280;7510;59.296;18.106;2022-09-02T04:44:24;101994.25;;;22.14;37.95
14838;BME280;7510;59.296;18.106;2022-09-02T04:46:50;101979.19;;;21.92;38.01
14838;BME280;7510;59.296;18.106;2022-09-02T04:49:15;102000.69;;;22.73;37.16
14838;BME280;7510;59.296;18.106;2022-09-02T04:51:41;101983.13;;;22.54;37.38
14838;BME280;7510;59.296;18.106;2022-09-02T04:54:07;101997.50;;;22.99;36.33
14838;BME280;7510;59.296;18.106;2022-09-02T04:56:33;101995.03;;;22.98;36.44
14838;BME280;7510;59.296;18.106;2022-09-02T04:58:58;102003.88;;;23.00;36.33
14838;BME280;7510;59.296;18.106;2022-09-02T05:01:27;102000.88;;;22.18;37.26
14838;BME280;7510;59.296;18.106;2022-09-02T05:03:54;102006.13;;;21.95;38.16
14838;BME280;7510;59.296;18.106;2022-09-02T05:06:23;102015.28;;;23.27;35.68
14838;BME280;7510;59.296;18.106;2022-09-02T05:08:53;102007.72;;;24.79;33.42
14838;BME280;7510;59.296;18.106;2022-09-02T05:11:21;102004.44;;;27.87;29.54
14838;BME280;7510;59.296;18.106;2022-09-02T05:13:49;102007.97;;;28.79;27.87
14838;BME280;7510;59.296;18.106;2022-09-02T05:16:21;101999.25;;;29.44;26.92
14838;BME280;7510;59.296;18.106;2022-09-02T05:18:47;102002.06;;;30.61;26.62
14838;BME280;7510;59.296;18.106;2022-09-02T05:21:13;101999.56;;;30.31;25.35
14838;BME280;7510;59.296;18.106;2022-09-02T05:23:39;101987.78;;;30.17;26.37
14838;BME280;7510;59.296;18.106;2022-09-02T05:26:07;102002.00;;;30.98;24.69
14838;BME280;7510;59.296;18.106;2022-09-02T05:28:33;101996.69;;;30.56;24.96
14838;BME280;7510;59.296;18.106;2022-09-02T05:31:07;101983.88;;;30.47;24.89
14838;BME280;7510;59.296;18.106;2022-09-02T05:33:35;101990.56;;;30.63;25.99
14838;BME280;7510;59.296;18.106;2022-09-02T05:36:06;101996.34;;;32.00;23.37
14838;BME280;7510;59.296;18.106;2022-09-02T05:38:32;101970.28;;;31.23;24.32
14838;BME280;7510;59.296;18.106;2022-09-02T05:40:58;101999.56;;;30.68;25.26
14838;BME280;7510;59.296;18.106;2022-09-02T05:43:29;101995.28;;;31.61;23.80
14838;BME280;7510;59.296;18.106;2022-09-02T05:45:54;102002.25;;;31.87;23.15
14838;BME280;7510;59.296;18.106;2022-09-02T05:48:19;102000.47;;;30.06;24.96
14838;BME280;7510;59.296;18.106;2022-09-02T05:51:04;101989.69;;;29.79;25.57
14838;BME280;7510;59.296;18.106;2022-09-02T05:53:31;102011.47;;;31.55;23.95
14838;BME280;7510;59.296;18.106;2022-09-02T05:55:56;102004.47;;;32.50;22.59
14838;BME280;7510;59.296;18.106;2022-09-02T05:58:23;102012.84;;;32.50;23.39
14838;BME280;7510;59.296;18.106;2022-09-02T06:00:48;102015.56;;;30.05;25.19
14838;BME280;7510;59.296;18.106;2022-09-02T06:03:14;102011.38;;;31.43;24.62
14838;BME280;7510;59.296;18.106;2022-09-02T06:05:58;102003.16;;;32.35;22.91
14838;BME280;7510;59.296;18.106;2022-09-02T06:08:23;102002.53;;;33.37;22.16
14838;BME280;7510;59.296;18.106;2022-09-02T06:10:48;102002.31;;;31.26;24.11
14838;BME280;7510;59.296;18.106;2022-09-02T06:13:14;102006.72;;;32.68;22.38
14838;BME280;7510;59.296;18.106;2022-09-02T06:15:43;102007.75;;;32.75;23.05
14838;BME280;7510;59.296;18.106;2022-09-02T06:18:10;101997.25;;;33.75;22.04
14838;BME280;7510;59.296;18.106;2022-09-02T06:20:40;102009.97;;;34.00;22.34
14838;BME280;7510;59.296;18.106;2022-09-02T06:23:06;101985.72;;;33.64;21.79
14838;BME280;7510;59.296;18.106;2022-09-02T06:25:35;102003.41;;;34.39;21.29
14838;BME280;7510;59.296;18.106;2022-09-02T06:28:01;102001.50;;;33.57;21.88
14838;BME280;7510;59.296;18.106;2022-09-02T06:30:26;102008.84;;;33.34;21.88
14838;BME280;7510;59.296;18.106;2022-09-02T06:32:52;102000.38;;;34.78;21.07
14838;BME280;7510;59.296;18.106;2022-09-02T06:35:18;102000.31;;;34.44;21.35
14838;BME280;7510;59.296;18.106;2022-09-02T06:37:43;102005.19;;;32.47;22.52
14838;BME280;7510;59.296;18.106;2022-09-02T06:40:09;102003.72;;;34.06;21.20
14838;BME280;7510;59.296;18.106;2022-09-02T06:42:36;102005.94;;;34.28;20.95
14838;BME280;7510;59.296;18.106;2022-09-02T06:45:01;102008.44;;;34.95;20.88
14838;BME280;7510;59.296;18.106;2022-09-02T06:47:28;102013.28;;;34.63;20.64
14838;BME280;7510;59.296;18.106;2022-09-02T06:49:55;102013.28;;;34.63;20.93
14838;BME280;7510;59.296;18.106;2022-09-02T06:52:21;101995.41;;;33.67;20.72
14838;BME280;7510;59.296;18.106;2022-09-02T06:54:47;102019.56;;;33.44;20.95
14838;BME280;7510;59.296;18.106;2022-09-02T06:57:14;102017.06;;;34.55;20.59
14838;BME280;7510;59.296;18.106;2022-09-02T06:59:39;102014.50;;;33.10;21.29
14838;BME280;7510;59.296;18.106;2022-09-02T07:02:05;102017.78;;;33.52;20.30
14838;BME280;7510;59.296;18.106;2022-09-02T07:04:31;102012.16;;;34.22;20.45
14838;BME280;7510;59.296;18.106;2022-09-02T07:07:15;102009.16;;;35.26;19.88
14838;BME280;7510;59.296;18.106;2022-09-02T07:09:41;102003.84;;;34.56;19.44
14838;BME280;7510;59.296;18.106;2022-09-02T07:12:06;102010.22;;;34.68;19.65
14838;BME280;7510;59.296;18.106;2022-09-02T07:14:37;102006.06;;;35.31;19.57
14838;BME280;7510;59.296;18.106;2022-09-02T07:17:03;102009.25;;;35.30;19.48
14838;BME280;7510;59.296;18.106;2022-09-02T07:19:29;102006.84;;;34.32;19.76
14838;BME280;7510;59.296;18.106;2022-09-02T07:21:54;102007.25;;;35.11;19.40
14838;BME280;7510;59.296;18.106;2022-09-02T07:24:20;102009.84;;;34.70;19.58
14838;BME280;7510;59.296;18.106;2022-09-02T07:26:46;102006.81;;;34.94;19.55
14838;BME280;7510;59.296;18.106;2022-09-02T07:29:12;102008.00;;;35.65;19.10
14838;BME280;7510;59.296;18.106;2022-09-02T07:31:42;102012.16;;;34.83;19.79
14838;BME280;7510;59.296;18.106;2022-09-02T07:34:09;102008.56;;;34.83;20.05
14838;BME280;7510;59.296;18.106;2022-09-02T07:36:35;102011.84;;;35.19;19.35
14838;BME280;7510;59.296;18.106;2022-09-02T07:39:03;102016.16;;;35.32;19.17
14838;BME280;7510;59.296;18.106;2022-09-02T07:41:29;102017.66;;;34.61;19.98
14838;BME280;7510;59.296;18.106;2022-09-02T07:43:54;102010.13;;;34.34;20.35
14838;BME280;7510;59.296;18.106;2022-09-02T07:46:20;102017.53;;;32.93;21.48
14838;BME280;7510;59.296;18.106;2022-09-02T07:48:45;102007.66;;;34.33;20.64
14838;BME280;7510;59.296;18.106;2022-09-02T07:51:15;102019.56;;;33.99;20.00
14838;BME280;7510;59.296;18.106;2022-09-02T07:53:41;102020.84;;;35.09;20.00
14838;BME280;7510;59.296;18.106;2022-09-02T07:56:08;102015.31;;;33.23;21.23
14838;BME280;7510;59.296;18.106;2022-09-02T07:58:33;102006.41;;;31.08;22.86
14838;BME280;7510;59.296;18.106;2022-09-02T08:00:59;102026.34;;;32.12;22.78
14838;BME280;7510;59.296;18.106;2022-09-02T08:03:25;102016.09;;;31.83;22.60
14838;BME280;7510;59.296;18.106;2022-09-02T08:05:51;102033.63;;;31.11;22.87
14838;BME280;7510;59.296;18.106;2022-09-02T08:08:18;102020.72;;;31.68;22.68
14838;BME280;7510;59.296;18.106;2022-09-02T08:10:48;102036.06;;;33.34;20.87
14838;BME280;7510;59.296;18.106;2022-09-02T08:13:13;102037.50;;;30.15;24.02
14838;BME280;7510;59.296;18.106;2022-09-02T08:15:39;102031.34;;;31.74;22.71
14838;BME280;7510;59.296;18.106;2022-09-02T08:18:05;102018.44;;;29.46;24.63
14838;BME280;7510;59.296;18.106;2022-09-02T08:20:32;102024.78;;;29.97;24.62
14838;BME280;7510;59.296;18.106;2022-09-02T08:22:57;102033.31;;;29.92;24.04
14838;BME280;7510;59.296;18.106;2022-09-02T08:25:23;102001.81;;;31.97;22.30
14838;BME280;7510;59.296;18.106;2022-09-02T08:27:49;102030.72;;;33.68;21.24
14838;BME280;7510;59.296;18.106;2022-09-02T08:30:14;102017.63;;;34.76;19.94
14838;BME280;7510;59.296;18.106;2022-09-02T08:32:40;102017.59;;;35.07;19.89
14838;BME280;7510;59.296;18.106;2022-09-02T08:35:08;102028.19;;;32.64;21.59
14838;BME280;7510;59.296;18.106;2022-09-02T08:37:35;102035.72;;;31.95;22.26
14838;BME280;7510;59.296;18.106;2022-09-02T08:40:03;102023.16;;;32.58;21.81
14838;BME280;7510;59.296;18.106;2022-09-02T08:42:34;102029.22;;;33.19;21.10
14838;BME280;7510;59.296;18.106;2022-09-02T08:45:17;102030.97;;;34.06;21.11
14838;BME280;7510;59.296;18.106;2022-09-02T08:47:48;102027.59;;;33.18;20.97
14838;BME280;7510;59.296;18.106;2022-09-02T08:50:16;102013.34;;;32.28;22.24
14838;BME280;7510;59.296;18.106;2022-09-02T08:52:47;102021.97;;;33.18;21.25
14838;BME280;7510;59.296;18.106;2022-09-02T08:55:21;102014.97;;;30.74;24.36
14838;BME280;7510;59.296;18.106;2022-09-02T08:57:50;102016.13;;;33.11;21.49
14838;BME280;7510;59.296;18.106;2022-09-02T09:00:15;102006.00;;;31.18;23.28
14838;BME280;7510;59.296;18.106;2022-09-02T09:03:06;102009.13;;;31.37;23.19
14838;BME280;7510;59.296;18.106;2022-09-02T09:05:57;102010.47;;;32.60;21.82
14838;BME280;7510;59.296;18.106;2022-09-02T09:11:15;102008.03;;;30.05;23.47
14838;BME280;7510;59.296;18.106;2022-09-02T09:20:29;102013.38;;;27.40;25.80
14838;BME280;7510;59.296;18.106;2022-09-02T09:22:57;102015.88;;;28.94;23.93
14838;BME280;7510;59.296;18.106;2022-09-02T09:25:24;102008.38;;;30.79;22.32
14838;BME280;7510;59.296;18.106;2022-09-02T09:28:00;102008.56;;;31.43;22.33
14838;BME280;7510;59.296;18.106;2022-09-02T09:30:28;102009.22;;;30.99;22.04
14838;BME280;7510;59.296;18.106;2022-09-02T09:32:56;102014.59;;;30.47;22.94
14838;BME280;7510;59.296;18.106;2022-09-02T09:35:22;102015.56;;;32.02;22.41
14838;BME280;7510;59.296;18.106;2022-09-02T09:37:52;102006.13;;;29.21;23.80
14838;BME280;7510;59.296;18.106;2022-09-02T09:45:41;102004.50;;;30.91;22.88
14838;BME280;7510;59.296;18.106;2022-09-02T09:53:21;102011.59;;;30.60;23.18
14838;BME280;7510;59.296;18.106;2022-09-02T09:58:20;102016.91;;;29.65;24.60
14838;BME280;7510;59.296;18.106;2022-09-02T10:00:47;102014.47;;;29.21;24.79
14838;BME280;7510;59.296;18.106;2022-09-02T10:03:24;102009.88;;;27.92;25.66
14838;BME280;7510;59.296;18.106;2022-09-02T10:05:56;102006.84;;;28.41;25.50
14838;BME280;7510;59.296;18.106;2022-09-02T10:08:25;102024.88;;;26.18;28.15
14838;BME280;7510;59.296;18.106;2022-09-02T10:11:03;102024.19;;;26.93;27.42
14838;BME280;7510;59.296;18.106;2022-09-02T10:13:34;102024.53;;;25.42;29.38
14838;BME280;7510;59.296;18.106;2022-09-02T10:21:11;102045.56;;;25.43;31.05
14838;BME280;7510;59.296;18.106;2022-09-02T10:31:40;102055.78;;;25.61;32.13
14838;BME280;7510;59.296;18.106;2022-09-02T10:47:37;102036.41;;;26.38;31.20
14838;BME280;7510;59.296;18.106;2022-09-02T10:56:01;102035.72;;;25.69;31.42
14838;BME280;7510;59.296;18.106;2022-09-02T11:04:12;102034.66;;;26.29;29.43
14838;BME280;7510;59.296;18.106;2022-09-02T11:06:43;102029.44;;;27.43;27.71
14838;BME280;7510;59.296;18.106;2022-09-02T11:11:55;102041.47;;;27.74;27.05
14838;BME280;7510;59.296;18.106;2022-09-02T11:17:52;102037.00;;;28.17;27.14
14838;BME280;7510;59.296;18.106;2022-09-02T11:20:39;102039.09;;;28.33;26.91
14838;BME280;7510;59.296;18.106;2022-09-02T11:25:59;102040.50;;;28.01;27.92
14838;BME280;7510;59.296;18.106;2022-09-02T11:28:37;102039.97;;;28.90;27.27
14838;BME280;7510;59.296;18.106;2022-09-02T11:31:29;102046.69;;;28.89;26.48
14838;BME280;7510;59.296;18.106;2022-09-02T11:36:50;102052.53;;;27.52;26.52
14838;BME280;7510;59.296;18.106;2022-09-02T11:39:38;102044.50;;;27.64;27.47
14838;BME280;7510;59.296;18.106;2022-09-02T11:45:08;102053.03;;;27.68;29.02
14838;BME280;7510;59.296;18.106;2022-09-02T11:58:32;102065.19;;;25.05;35.27
14838;BME280;7510;59.296;18.106;2022-09-02T12:04:00;102052.59;;;25.54;34.24
14838;BME280;7510;59.296;18.106;2022-09-02T12:06:27;102032.38;;;26.04;32.32
14838;BME280;7510;59.296;18.106;2022-09-02T12:11:38;102058.56;;;25.61;34.45
14838;BME280;7510;59.296;18.106;2022-09-02T12:14:08;102030.38;;;25.91;33.32
14838;BME280;7510;59.296;18.106;2022-09-02T12:16:43;102055.38;;;26.18;32.89
14838;BME280;7510;59.296;18.106;2022-09-02T12:21:35;102034.50;;;26.52;32.04
14838;BME280;7510;59.296;18.106;2022-09-02T12:24:20;102022.09;;;26.18;33.23
14838;BME280;7510;59.296;18.106;2022-09-02T12:29:31;102038.94;;;26.08;32.11
14838;BME280;7510;59.296;18.106;2022-09-02T12:31:57;102040.22;;;25.97;31.69
14838;BME280;7510;59.296;18.106;2022-09-02T12:34:50;102042.38;;;25.87;31.93
14838;BME280;7510;59.296;18.106;2022-09-02T12:38:15;102042.59;;;25.90;31.02
14838;BME280;7510;59.296;18.106;2022-09-02T12:40:26;102046.88;;;25.83;31.16
14838;BME280;7510;59.296;18.106;2022-09-02T12:42:55;102048.97;;;25.91;31.25
14838;BME280;7510;59.296;18.106;2022-09-02T12:45:24;102034.75;;;26.24;30.78
14838;BME280;7510;59.296;18.106;2022-09-02T12:48:07;102053.41;;;24.95;32.07
14838;BME280;7510;59.296;18.106;2022-09-02T12:50:56;102050.44;;;25.15;33.19
14838;BME280;7510;59.296;18.106;2022-09-02T12:56:02;102071.41;;;22.97;35.85
14838;BME280;7510;59.296;18.106;2022-09-02T12:58:54;102061.75;;;23.91;35.01
14838;BME280;7510;59.296;18.106;2022-09-02T13:05:07;102058.25;;;25.63;34.63
14838;BME280;7510;59.296;18.106;2022-09-02T13:21:09;101967.91;;;26.12;31.87
14838;BME280;7510;59.296;18.106;2022-09-02T13:26:44;102031.47;;;26.22;32.50
14838;BME280;7510;59.296;18.106;2022-09-02T13:32:24;102039.22;;;27.41;30.34
14838;BME280;7510;59.296;18.106;2022-09-02T13:34:52;102039.97;;;27.20;32.21
14838;BME280;7510;59.296;18.106;2022-09-02T13:39:57;102008.56;;;27.11;31.12
14838;BME280;7510;59.296;18.106;2022-09-02T13:42:25;102035.97;;;27.25;32.48
14838;BME280;7510;59.296;18.106;2022-09-02T13:45:13;102023.63;;;27.53;31.17
14838;BME280;7510;59.296;18.106;2022-09-02T13:47:44;102034.75;;;27.18;29.90
14838;BME280;7510;59.296;18.106;2022-09-02T13:50:16;102024.66;;;27.57;29.89
14838;BME280;7510;59.296;18.106;2022-09-02T13:52:44;102016.72;;;27.86;28.50
14838;BME280;7510;59.296;18.106;2022-09-02T13:55:13;102029.44;;;27.43;30.25
14838;BME280;7510;59.296;18.106;2022-09-02T13:57:44;102018.94;;;25.79;31.17
14838;BME280;7510;59.296;18.106;2022-09-02T14:00:14;102023.91;;;26.54;31.20
14838;BME280;7510;59.296;18.106;2022-09-02T14:02:40;102021.31;;;27.12;31.29
14838;BME280;7510;59.296;18.106;2022-09-02T14:05:21;102007.19;;;27.22;30.35
14838;BME280;7510;59.296;18.106;2022-09-02T14:07:50;102028.91;;;26.39;31.74
14838;BME280;7510;59.296;18.106;2022-09-02T14:10:18;102030.22;;;26.15;32.02
14838;BME280;7510;59.296;18.106;2022-09-02T14:12:46;102029.44;;;25.82;30.48
14838;BME280;7510;59.296;18.106;2022-09-02T14:15:15;102019.47;;;25.63;31.98
14838;BME280;7510;59.296;18.106;2022-09-02T14:17:41;102020.28;;;25.82;30.67
14838;BME280;7510;59.296;18.106;2022-09-02T14:20:22;102019.91;;;26.02;30.54
14838;BME280;7510;59.296;18.106;2022-09-02T14:22:58;102013.94;;;26.40;31.00
14838;BME280;7510;59.296;18.106;2022-09-02T14:25:36;101937.59;;;25.43;31.93
14838;BME280;7510;59.296;18.106;2022-09-02T14:28:09;102013.81;;;25.86;32.23
14838;BME280;7510;59.296;18.106;2022-09-02T14:30:53;101993.88;;;25.71;32.16
14838;BME280;7510;59.296;18.106;2022-09-02T14:35:54;102007.34;;;27.03;30.78
14838;BME280;7510;59.296;18.106;2022-09-02T14:38:25;102013.97;;;26.67;30.61
14838;BME280;7510;59.296;18.106;2022-09-02T14:43:48;102012.34;;;26.07;32.15
14838;BME280;7510;59.296;18.106;2022-09-02T14:46:24;102002.16;;;25.89;31.55
14838;BME280;7510;59.296;18.106;2022-09-02T14:48:57;101976.59;;;25.92;30.80
14838;BME280;7510;59.296;18.106;2022-09-02T14:51:30;102008.19;;;26.77;30.60
14838;BME280;7510;59.296;18.106;2022-09-02T14:53:56;102006.19;;;27.04;29.87
14838;BME280;7510;59.296;18.106;2022-09-02T14:56:50;102006.97;;;26.56;30.42
14838;BME280;7510;59.296;18.106;2022-09-02T14:59:17;102022.09;;;26.18;30.75
14838;BME280;7510;59.296;18.106;2022-09-02T15:01:46;102001.06;;;24.80;31.89
14838;BME280;7510;59.296;18.106;2022-09-02T15:04:13;102021.69;;;25.11;31.99
14838;BME280;7510;59.296;18.106;2022-09-02T15:06:40;102019.72;;;24.93;31.75
14838;BME280;7510;59.296;18.106;2022-09-02T15:09:06;102020.28;;;24.90;32.01
14838;BME280;7510;59.296;18.106;2022-09-02T15:11:31;102017.34;;;25.05;31.81
14838;BME280;7510;59.296;18.106;2022-09-02T15:13:57;102026.31;;;25.15;32.07
14838;BME280;7510;59.296;18.106;2022-09-02T15:16:23;102019.47;;;25.08;31.84